sensor_id;sensor_type;location;lat;lon;timestamp;P1;durP1;ratioP1;P2;durP2;ratioP2
20844;SDS011;10583;49.084;8.646;2022-11-14T00:00:24;15.43;;;15.33;;
20844;SDS011;10583;49.084;8.646;2022-11-14T00:02:51;15.57;;;15.47;;
20844;SDS011;10583;49.084;8.646;2022-11-14T00:05:18;15.50;;;15.40;;
20844;SDS011;10583;49.084;8.646;2022-11-14T00:07:47;16.93;;;16.83;;
20844;SDS011;10583;49.084;8.646;2022-11-14T00:10:14;15.77;;;15.67;;
20844;SDS011;10583;49.084;8.646;2022-11-14T00:12:41;14.93;;;14.83;;
20844;SDS011;10583;49.084;8.646;2022-11-14T00:15:09;15.00;;;14.90;;
20844;SDS011;10583;49.084;8.646;2022-11-14T00:17:36;13.33;;;13.33;;
20844;SDS011;10583;49.084;8.646;2022-11-14T00:20:03;12.93;;;12.87;;
20844;SDS011;10583;49.084;8.646;2022-11-14T00:22:32;13.23;;;13.23;;
20844;SDS011;10583;49.084;8.646;2022-11-14T00:25:00;14.60;;;14.50;;
20844;SDS011;10583;49.084;8.646;2022-11-14T00:27:27;15.60;;;15.50;;
20844;SDS011;10583;49.084;8.646;2022-11-14T00:29:53;14.60;;;14.50;;
20844;SDS011;10583;49.084;8.646;2022-11-14T00:32:20;15.77;;;15.67;;
20844;SDS011;10583;49.084;8.646;2022-11-14T00:34:47;14.33;;;14.23;;
20844;SDS011;10583;49.084;8.646;2022-11-14T00:37:14;15.00;;;15.00;;
20844;SDS011;10583;49.084;8.646;2022-11-14T00:39:40;13.53;;;13.53;;
20844;SDS011;10583;49.084;8.646;2022-11-14T00:42:09;13.93;;;13.93;;
20844;SDS011;10583;49.084;8.646;2022-11-14T00:44:35;15.77;;;15.67;;
20844;SDS011;10583;49.084;8.646;2022-11-14T00:47:02;15.27;;;15.17;;
20844;SDS011;10583;49.084;8.646;2022-11-14T00:49:29;13.87;;;13.77;;
20844;SDS011;10583;49.084;8.646;2022-11-14T00:51:55;16.17;;;16.07;;
20844;SDS011;10583;49.084;8.646;2022-11-14T00:54:22;15.90;;;15.80;;
20844;SDS011;10583;49.084;8.646;2022-11-14T00:56:50;14.33;;;14.23;;
20844;SDS011;10583;49.084;8.646;2022-11-14T00:59:18;17.17;;;17.07;;
20844;SDS011;10583;49.084;8.646;2022-11-14T01:01:45;16.03;;;15.93;;
20844;SDS011;10583;49.084;8.646;2022-11-14T01:04:12;15.53;;;15.43;;
20844;SDS011;10583;49.084;8.646;2022-11-14T01:06:38;17.47;;;17.37;;
20844;SDS011;10583;49.084;8.646;2022-11-14T01:09:05;16.97;;;16.87;;
20844;SDS011;10583;49.084;8.646;2022-11-14T01:11:32;17.20;;;17.10;;
20844;SDS011;10583;49.084;8.646;2022-11-14T01:13:58;16.33;;;16.23;;
20844;SDS011;10583;49.084;8.646;2022-11-14T01:16:26;16.17;;;16.07;;
20844;SDS011;10583;49.084;8.646;2022-11-14T01:18:53;17.10;;;17.00;;
20844;SDS011;10583;49.084;8.646;2022-11-14T01:21:20;15.70;;;15.60;;
20844;SDS011;10583;49.084;8.646;2022-11-14T01:23:46;15.70;;;15.60;;
20844;SDS011;10583;49.084;8.646;2022-11-14T01:26:13;15.23;;;15.13;;
20844;SDS011;10583;49.084;8.646;2022-11-14T01:28:40;15.63;;;15.53;;
20844;SDS011;10583;49.084;8.646;2022-11-14T01:31:08;13.63;;;13.53;;
20844;SDS011;10583;49.084;8.646;2022-11-14T01:33:38;13.73;;;13.70;;
20844;SDS011;10583;49.084;8.646;2022-11-14T01:36:05;14.37;;;14.27;;
20844;SDS011;10583;49.084;8.646;2022-11-14T01:38:32;13.43;;;13.43;;
20844;SDS011;10583;49.084;8.646;2022-11-14T01:40:59;15.17;;;15.07;;
20844;SDS011;10583;49.084;8.646;2022-11-14T01:43:27;15.17;;;15.07;;
20844;SDS011;10583;49.084;8.646;2022-11-14T01:45:56;16.20;;;16.10;;
20844;SDS011;10583;49.084;8.646;2022-11-14T01:48:26;16.70;;;16.60;;
20844;SDS011;10583;49.084;8.646;2022-11-14T01:50:59;17.73;;;17.63;;
20844;SDS011;10583;49.084;8.646;2022-11-14T01:53:28;17.27;;;17.17;;
20844;SDS011;10583;49.084;8.646;2022-11-14T01:55:57;19.20;;;19.10;;
20844;SDS011;10583;49.084;8.646;2022-11-14T01:58:26;18.50;;;18.40;;
20844;SDS011;10583;49.084;8.646;2022-11-14T02:00:54;20.13;;;20.03;;
20844;SDS011;10583;49.084;8.646;2022-11-14T02:03:22;20.17;;;20.07;;
20844;SDS011;10583;49.084;8.646;2022-11-14T02:05:49;21.37;;;21.27;;
20844;SDS011;10583;49.084;8.646;2022-11-14T02:08:18;22.03;;;21.83;;
20844;SDS011;10583;49.084;8.646;2022-11-14T02:10:46;22.50;;;22.30;;
20844;SDS011;10583;49.084;8.646;2022-11-14T02:13:13;21.70;;;21.50;;
20844;SDS011;10583;49.084;8.646;2022-11-14T02:15:39;23.40;;;23.30;;
20844;SDS011;10583;49.084;8.646;2022-11-14T02:18:06;24.30;;;24.10;;
20844;SDS011;10583;49.084;8.646;2022-11-14T02:20:36;21.13;;;21.03;;
20844;SDS011;10583;49.084;8.646;2022-11-14T02:23:07;23.70;;;23.50;;
20844;SDS011;10583;49.084;8.646;2022-11-14T02:25:34;23.37;;;23.17;;
20844;SDS011;10583;49.084;8.646;2022-11-14T02:28:02;20.73;;;20.63;;
20844;SDS011;10583;49.084;8.646;2022-11-14T02:30:30;21.07;;;20.97;;
20844;SDS011;10583;49.084;8.646;2022-11-14T02:32:57;21.87;;;21.77;;
20844;SDS011;10583;49.084;8.646;2022-11-14T02:35:24;21.23;;;21.13;;
20844;SDS011;10583;49.084;8.646;2022-11-14T02:37:53;22.00;;;21.90;;
20844;SDS011;10583;49.084;8.646;2022-11-14T02:40:19;19.73;;;19.63;;
20844;SDS011;10583;49.084;8.646;2022-11-14T02:42:46;19.23;;;19.13;;
20844;SDS011;10583;49.084;8.646;2022-11-14T02:45:13;19.17;;;19.07;;
20844;SDS011;10583;49.084;8.646;2022-11-14T02:47:40;21.23;;;21.13;;
20844;SDS011;10583;49.084;8.646;2022-11-14T02:50:07;21.00;;;20.90;;
20844;SDS011;10583;49.084;8.646;2022-11-14T02:52:34;20.63;;;20.53;;
20844;SDS011;10583;49.084;8.646;2022-11-14T02:55:02;21.07;;;20.97;;
20844;SDS011;10583;49.084;8.646;2022-11-14T02:57:29;20.07;;;19.97;;
20844;SDS011;10583;49.084;8.646;2022-11-14T02:59:56;21.57;;;21.47;;
20844;SDS011;10583;49.084;8.646;2022-11-14T03:02:23;21.70;;;21.60;;
20844;SDS011;10583;49.084;8.646;2022-11-14T03:04:50;21.27;;;21.17;;
20844;SDS011;10583;49.084;8.646;2022-11-14T03:07:16;21.73;;;21.53;;
20844;SDS011;10583;49.084;8.646;2022-11-14T03:09:43;22.17;;;22.07;;
20844;SDS011;10583;49.084;8.646;2022-11-14T03:12:14;21.03;;;20.93;;
20844;SDS011;10583;49.084;8.646;2022-11-14T03:14:41;21.33;;;21.23;;
20844;SDS011;10583;49.084;8.646;2022-11-14T03:17:08;20.17;;;20.07;;
20844;SDS011;10583;49.084;8.646;2022-11-14T03:19:35;20.57;;;20.47;;
20844;SDS011;10583;49.084;8.646;2022-11-14T03:22:02;21.20;;;21.10;;
20844;SDS011;10583;49.084;8.646;2022-11-14T03:24:29;20.43;;;20.33;;
20844;SDS011;10583;49.084;8.646;2022-11-14T03:26:55;20.83;;;20.73;;
20844;SDS011;10583;49.084;8.646;2022-11-14T03:29:23;21.67;;;21.57;;
20844;SDS011;10583;49.084;8.646;2022-11-14T03:31:50;22.43;;;22.23;;
20844;SDS011;10583;49.084;8.646;2022-11-14T03:34:17;19.90;;;19.80;;
20844;SDS011;10583;49.084;8.646;2022-11-14T03:36:43;19.70;;;19.60;;
20844;SDS011;10583;49.084;8.646;2022-11-14T03:39:10;19.90;;;19.80;;
20844;SDS011;10583;49.084;8.646;2022-11-14T03:41:37;20.13;;;20.03;;
20844;SDS011;10583;49.084;8.646;2022-11-14T03:44:04;20.37;;;20.27;;
20844;SDS011;10583;49.084;8.646;2022-11-14T03:46:32;20.57;;;20.47;;
20844;SDS011;10583;49.084;8.646;2022-11-14T03:48:58;19.63;;;19.53;;
20844;SDS011;10583;49.084;8.646;2022-11-14T03:51:25;18.23;;;18.13;;
20844;SDS011;10583;49.084;8.646;2022-11-14T03:53:52;18.33;;;18.23;;
20844;SDS011;10583;49.084;8.646;2022-11-14T03:56:18;18.63;;;18.53;;
20844;SDS011;10583;49.084;8.646;2022-11-14T03:58:45;18.67;;;18.57;;
20844;SDS011;10583;49.084;8.646;2022-11-14T04:01:12;18.17;;;18.07;;
20844;SDS011;10583;49.084;8.646;2022-11-14T04:03:40;18.60;;;18.50;;
20844;SDS011;10583;49.084;8.646;2022-11-14T04:06:07;17.93;;;17.83;;
20844;SDS011;10583;49.084;8.646;2022-11-14T04:08:33;18.60;;;18.50;;
20844;SDS011;10583;49.084;8.646;2022-11-14T04:11:00;18.73;;;18.63;;
20844;SDS011;10583;49.084;8.646;2022-11-14T04:13:27;18.33;;;18.23;;
20844;SDS011;10583;49.084;8.646;2022-11-14T04:15:54;17.93;;;17.83;;
20844;SDS011;10583;49.084;8.646;2022-11-14T04:18:21;18.00;;;17.90;;
20844;SDS011;10583;49.084;8.646;2022-11-14T04:20:49;19.70;;;19.60;;
20844;SDS011;10583;49.084;8.646;2022-11-14T04:23:16;21.17;;;21.07;;
20844;SDS011;10583;49.084;8.646;2022-11-14T04:25:44;19.17;;;19.07;;
20844;SDS011;10583;49.084;8.646;2022-11-14T04:28:11;20.80;;;20.70;;
20844;SDS011;10583;49.084;8.646;2022-11-14T04:30:38;20.63;;;20.53;;
20844;SDS011;10583;49.084;8.646;2022-11-14T04:33:05;20.50;;;20.40;;
20844;SDS011;10583;49.084;8.646;2022-11-14T04:35:32;20.33;;;20.23;;
20844;SDS011;10583;49.084;8.646;2022-11-14T04:38:00;20.77;;;20.67;;
20844;SDS011;10583;49.084;8.646;2022-11-14T04:40:27;21.40;;;21.30;;
20844;SDS011;10583;49.084;8.646;2022-11-14T04:42:53;20.93;;;20.83;;
20844;SDS011;10583;49.084;8.646;2022-11-14T04:45:20;20.80;;;20.70;;
20844;SDS011;10583;49.084;8.646;2022-11-14T04:47:47;21.90;;;21.80;;
20844;SDS011;10583;49.084;8.646;2022-11-14T04:50:14;22.10;;;22.00;;
20844;SDS011;10583;49.084;8.646;2022-11-14T04:52:40;21.70;;;21.60;;
20844;SDS011;10583;49.084;8.646;2022-11-14T04:55:09;20.77;;;20.67;;
20844;SDS011;10583;49.084;8.646;2022-11-14T04:57:35;20.77;;;20.67;;
20844;SDS011;10583;49.084;8.646;2022-11-14T05:00:02;19.63;;;19.53;;
20844;SDS011;10583;49.084;8.646;2022-11-14T05:02:30;19.67;;;19.57;;
20844;SDS011;10583;49.084;8.646;2022-11-14T05:04:57;19.17;;;19.07;;
20844;SDS011;10583;49.084;8.646;2022-11-14T05:07:24;19.03;;;18.93;;
20844;SDS011;10583;49.084;8.646;2022-11-14T05:09:50;18.40;;;18.30;;
20844;SDS011;10583;49.084;8.646;2022-11-14T05:12:18;20.37;;;20.27;;
20844;SDS011;10583;49.084;8.646;2022-11-14T05:14:45;19.37;;;19.27;;
20844;SDS011;10583;49.084;8.646;2022-11-14T05:17:12;18.90;;;18.80;;
20844;SDS011;10583;49.084;8.646;2022-11-14T05:19:40;18.03;;;17.93;;
20844;SDS011;10583;49.084;8.646;2022-11-14T05:22:06;16.93;;;16.83;;
20844;SDS011;10583;49.084;8.646;2022-11-14T05:24:33;17.53;;;17.43;;
20844;SDS011;10583;49.084;8.646;2022-11-14T05:27:00;17.93;;;17.83;;
20844;SDS011;10583;49.084;8.646;2022-11-14T05:29:28;16.97;;;16.87;;
20844;SDS011;10583;49.084;8.646;2022-11-14T05:31:54;17.33;;;17.23;;
20844;SDS011;10583;49.084;8.646;2022-11-14T05:34:21;15.63;;;15.63;;
20844;SDS011;10583;49.084;8.646;2022-11-14T05:36:48;13.87;;;13.87;;
20844;SDS011;10583;49.084;8.646;2022-11-14T05:39:15;14.60;;;14.60;;
20844;SDS011;10583;49.084;8.646;2022-11-14T05:41:42;13.83;;;13.83;;
20844;SDS011;10583;49.084;8.646;2022-11-14T05:44:08;15.47;;;15.37;;
20844;SDS011;10583;49.084;8.646;2022-11-14T05:46:36;14.10;;;14.10;;
20844;SDS011;10583;49.084;8.646;2022-11-14T05:49:03;14.97;;;14.97;;
20844;SDS011;10583;49.084;8.646;2022-11-14T05:51:30;14.23;;;14.23;;
20844;SDS011;10583;49.084;8.646;2022-11-14T05:53:56;14.17;;;14.17;;
20844;SDS011;10583;49.084;8.646;2022-11-14T05:56:23;14.60;;;14.60;;
20844;SDS011;10583;49.084;8.646;2022-11-14T05:58:50;15.20;;;15.20;;
20844;SDS011;10583;49.084;8.646;2022-11-14T06:01:17;15.03;;;15.03;;
20844;SDS011;10583;49.084;8.646;2022-11-14T06:03:46;16.03;;;15.93;;
20844;SDS011;10583;49.084;8.646;2022-11-14T06:06:15;16.47;;;16.37;;
20844;SDS011;10583;49.084;8.646;2022-11-14T06:08:43;15.33;;;15.27;;
20844;SDS011;10583;49.084;8.646;2022-11-14T06:11:11;17.13;;;17.03;;
20844;SDS011;10583;49.084;8.646;2022-11-14T06:13:39;15.93;;;15.83;;
20844;SDS011;10583;49.084;8.646;2022-11-14T06:16:07;17.10;;;17.00;;
20844;SDS011;10583;49.084;8.646;2022-11-14T06:18:35;14.87;;;14.87;;
20844;SDS011;10583;49.084;8.646;2022-11-14T06:21:04;15.60;;;15.60;;
20844;SDS011;10583;49.084;8.646;2022-11-14T06:23:32;16.07;;;15.97;;
20844;SDS011;10583;49.084;8.646;2022-11-14T06:26:00;15.03;;;14.93;;
20844;SDS011;10583;49.084;8.646;2022-11-14T06:28:27;16.17;;;16.07;;
20844;SDS011;10583;49.084;8.646;2022-11-14T06:30:58;14.00;;;14.00;;
20844;SDS011;10583;49.084;8.646;2022-11-14T06:33:25;14.13;;;14.13;;
20844;SDS011;10583;49.084;8.646;2022-11-14T06:35:56;12.90;;;12.90;;
20844;SDS011;10583;49.084;8.646;2022-11-14T06:38:25;12.80;;;12.80;;
20844;SDS011;10583;49.084;8.646;2022-11-14T06:40:52;13.17;;;13.17;;
20844;SDS011;10583;49.084;8.646;2022-11-14T06:43:26;11.90;;;11.90;;
20844;SDS011;10583;49.084;8.646;2022-11-14T06:45:52;12.10;;;12.10;;
20844;SDS011;10583;49.084;8.646;2022-11-14T06:48:19;12.70;;;12.70;;
20844;SDS011;10583;49.084;8.646;2022-11-14T06:50:49;13.03;;;13.03;;
20844;SDS011;10583;49.084;8.646;2022-11-14T06:53:17;13.00;;;13.00;;
20844;SDS011;10583;49.084;8.646;2022-11-14T06:55:52;13.47;;;13.47;;
20844;SDS011;10583;49.084;8.646;2022-11-14T06:58:19;14.07;;;14.03;;
20844;SDS011;10583;49.084;8.646;2022-11-14T07:00:46;15.07;;;14.97;;
20844;SDS011;10583;49.084;8.646;2022-11-14T07:03:13;15.07;;;15.03;;
20844;SDS011;10583;49.084;8.646;2022-11-14T07:05:39;16.17;;;16.07;;
20844;SDS011;10583;49.084;8.646;2022-11-14T07:08:06;14.80;;;14.70;;
20844;SDS011;10583;49.084;8.646;2022-11-14T07:10:33;15.60;;;15.50;;
20844;SDS011;10583;49.084;8.646;2022-11-14T07:13:01;15.50;;;15.50;;
20844;SDS011;10583;49.084;8.646;2022-11-14T07:15:28;15.73;;;15.63;;
20844;SDS011;10583;49.084;8.646;2022-11-14T07:17:54;15.77;;;15.67;;
20844;SDS011;10583;49.084;8.646;2022-11-14T07:20:21;14.20;;;14.20;;
20844;SDS011;10583;49.084;8.646;2022-11-14T07:22:48;14.07;;;14.07;;
20844;SDS011;10583;49.084;8.646;2022-11-14T07:25:14;13.90;;;13.90;;
20844;SDS011;10583;49.084;8.646;2022-11-14T07:27:41;14.03;;;13.93;;
20844;SDS011;10583;49.084;8.646;2022-11-14T07:30:10;13.53;;;13.53;;
20844;SDS011;10583;49.084;8.646;2022-11-14T07:32:37;13.53;;;13.53;;
20844;SDS011;10583;49.084;8.646;2022-11-14T07:35:04;12.93;;;12.93;;
20844;SDS011;10583;49.084;8.646;2022-11-14T07:37:31;12.97;;;12.97;;
20844;SDS011;10583;49.084;8.646;2022-11-14T07:39:58;11.93;;;11.93;;
20844;SDS011;10583;49.084;8.646;2022-11-14T07:42:27;11.43;;;11.43;;
20844;SDS011;10583;49.084;8.646;2022-11-14T07:44:53;10.63;;;10.63;;
20844;SDS011;10583;49.084;8.646;2022-11-14T07:47:22;9.83;;;9.83;;
20844;SDS011;10583;49.084;8.646;2022-11-14T07:49:48;9.73;;;9.73;;
20844;SDS011;10583;49.084;8.646;2022-11-14T07:52:15;10.33;;;10.33;;
20844;SDS011;10583;49.084;8.646;2022-11-14T07:54:42;12.00;;;12.00;;
20844;SDS011;10583;49.084;8.646;2022-11-14T07:57:08;11.77;;;11.77;;
20844;SDS011;10583;49.084;8.646;2022-11-14T07:59:35;11.23;;;11.23;;
20844;SDS011;10583;49.084;8.646;2022-11-14T08:02:02;10.53;;;10.53;;
20844;SDS011;10583;49.084;8.646;2022-11-14T08:04:30;10.30;;;10.30;;
20844;SDS011;10583;49.084;8.646;2022-11-14T08:06:56;9.77;;;9.77;;
20844;SDS011;10583;49.084;8.646;2022-11-14T08:09:23;9.37;;;9.37;;
20844;SDS011;10583;49.084;8.646;2022-11-14T08:11:50;9.83;;;9.83;;
20844;SDS011;10583;49.084;8.646;2022-11-14T08:14:16;9.30;;;9.30;;
20844;SDS011;10583;49.084;8.646;2022-11-14T08:16:43;12.20;;;12.20;;
20844;SDS011;10583;49.084;8.646;2022-11-14T08:19:10;13.73;;;13.63;;
20844;SDS011;10583;49.084;8.646;2022-11-14T08:21:38;12.90;;;12.80;;
20844;SDS011;10583;49.084;8.646;2022-11-14T08:24:05;11.63;;;11.63;;
20844;SDS011;10583;49.084;8.646;2022-11-14T08:26:32;10.17;;;10.17;;
20844;SDS011;10583;49.084;8.646;2022-11-14T08:28:58;10.90;;;10.90;;
20844;SDS011;10583;49.084;8.646;2022-11-14T08:31:25;9.83;;;9.83;;
20844;SDS011;10583;49.084;8.646;2022-11-14T08:33:53;10.40;;;10.40;;
20844;SDS011;10583;49.084;8.646;2022-11-14T08:36:19;9.00;;;9.00;;
20844;SDS011;10583;49.084;8.646;2022-11-14T08:38:47;9.70;;;9.70;;
20844;SDS011;10583;49.084;8.646;2022-11-14T08:41:14;10.23;;;10.23;;
20844;SDS011;10583;49.084;8.646;2022-11-14T08:43:41;9.60;;;9.60;;
20844;SDS011;10583;49.084;8.646;2022-11-14T08:46:08;10.70;;;10.70;;
20844;SDS011;10583;49.084;8.646;2022-11-14T08:48:34;10.60;;;10.60;;
20844;SDS011;10583;49.084;8.646;2022-11-14T08:51:02;11.03;;;11.03;;
20844;SDS011;10583;49.084;8.646;2022-11-14T08:53:29;10.73;;;10.73;;
20844;SDS011;10583;49.084;8.646;2022-11-14T08:55:58;10.70;;;10.70;;
20844;SDS011;10583;49.084;8.646;2022-11-14T08:58:26;11.50;;;11.50;;
20844;SDS011;10583;49.084;8.646;2022-11-14T09:00:54;12.13;;;12.13;;
20844;SDS011;10583;49.084;8.646;2022-11-14T09:03:25;11.20;;;11.20;;
20844;SDS011;10583;49.084;8.646;2022-11-14T09:05:51;10.40;;;10.40;;
20844;SDS011;10583;49.084;8.646;2022-11-14T09:08:18;10.60;;;10.60;;
20844;SDS011;10583;49.084;8.646;2022-11-14T09:10:45;12.00;;;12.00;;
20844;SDS011;10583;49.084;8.646;2022-11-14T09:13:13;11.53;;;11.53;;
20844;SDS011;10583;49.084;8.646;2022-11-14T09:15:41;11.13;;;11.13;;
20844;SDS011;10583;49.084;8.646;2022-11-14T09:18:08;9.63;;;9.63;;
20844;SDS011;10583;49.084;8.646;2022-11-14T09:20:35;10.53;;;10.53;;
20844;SDS011;10583;49.084;8.646;2022-11-14T09:23:02;10.10;;;10.10;;
20844;SDS011;10583;49.084;8.646;2022-11-14T09:25:30;10.47;;;10.47;;
20844;SDS011;10583;49.084;8.646;2022-11-14T09:27:56;10.10;;;10.10;;
20844;SDS011;10583;49.084;8.646;2022-11-14T09:30:24;10.87;;;10.87;;
20844;SDS011;10583;49.084;8.646;2022-11-14T09:32:51;9.67;;;9.67;;
20844;SDS011;10583;49.084;8.646;2022-11-14T09:35:18;11.03;;;11.03;;
20844;SDS011;10583;49.084;8.646;2022-11-14T09:37:44;13.20;;;13.20;;
20844;SDS011;10583;49.084;8.646;2022-11-14T09:40:11;12.60;;;12.60;;
20844;SDS011;10583;49.084;8.646;2022-11-14T09:42:45;12.23;;;12.23;;
20844;SDS011;10583;49.084;8.646;2022-11-14T09:45:24;14.77;;;14.67;;
20844;SDS011;10583;49.084;8.646;2022-11-14T09:47:53;23.50;;;23.40;;
20844;SDS011;10583;49.084;8.646;2022-11-14T09:50:31;18.20;;;18.10;;
20844;SDS011;10583;49.084;8.646;2022-11-14T09:53:02;11.23;;;11.23;;
20844;SDS011;10583;49.084;8.646;2022-11-14T09:55:32;8.93;;;8.93;;
20844;SDS011;10583;49.084;8.646;2022-11-14T09:58:00;10.53;;;10.53;;
20844;SDS011;10583;49.084;8.646;2022-11-14T10:00:33;10.87;;;10.87;;
20844;SDS011;10583;49.084;8.646;2022-11-14T10:03:11;12.80;;;12.80;;
20844;SDS011;10583;49.084;8.646;2022-11-14T10:05:50;12.40;;;12.40;;
20844;SDS011;10583;49.084;8.646;2022-11-14T10:08:40;12.77;;;12.67;;
20844;SDS011;10583;49.084;8.646;2022-11-14T10:11:15;14.10;;;14.00;;
20844;SDS011;10583;49.084;8.646;2022-11-14T10:16:50;15.10;;;15.00;;
20844;SDS011;10583;49.084;8.646;2022-11-14T10:19:26;15.13;;;15.03;;
20844;SDS011;10583;49.084;8.646;2022-11-14T10:22:03;17.10;;;17.00;;
20844;SDS011;10583;49.084;8.646;2022-11-14T10:27:30;14.87;;;14.77;;
20844;SDS011;10583;49.084;8.646;2022-11-14T10:30:02;13.47;;;13.37;;
20844;SDS011;10583;49.084;8.646;2022-11-14T10:32:40;15.07;;;14.97;;
20844;SDS011;10583;49.084;8.646;2022-11-14T10:35:18;14.87;;;14.77;;
20844;SDS011;10583;49.084;8.646;2022-11-14T10:37:50;17.40;;;17.30;;
20844;SDS011;10583;49.084;8.646;2022-11-14T10:40:25;17.70;;;17.60;;
20844;SDS011;10583;49.084;8.646;2022-11-14T10:43:00;17.87;;;17.77;;
20844;SDS011;10583;49.084;8.646;2022-11-14T10:45:31;17.17;;;17.07;;
20844;SDS011;10583;49.084;8.646;2022-11-14T10:48:07;18.33;;;18.23;;
20844;SDS011;10583;49.084;8.646;2022-11-14T10:50:39;16.43;;;16.33;;
20844;SDS011;10583;49.084;8.646;2022-11-14T10:53:13;17.73;;;17.63;;
20844;SDS011;10583;49.084;8.646;2022-11-14T10:55:48;17.63;;;17.53;;
20844;SDS011;10583;49.084;8.646;2022-11-14T10:58:16;17.40;;;17.30;;
20844;SDS011;10583;49.084;8.646;2022-11-14T11:00:44;16.63;;;16.53;;
20844;SDS011;10583;49.084;8.646;2022-11-14T11:03:12;18.23;;;18.13;;
20844;SDS011;10583;49.084;8.646;2022-11-14T11:05:46;16.67;;;16.57;;
20844;SDS011;10583;49.084;8.646;2022-11-14T11:08:17;15.63;;;15.53;;
20844;SDS011;10583;49.084;8.646;2022-11-14T11:11:02;13.83;;;13.73;;
20844;SDS011;10583;49.084;8.646;2022-11-14T11:13:51;13.07;;;13.07;;
20844;SDS011;10583;49.084;8.646;2022-11-14T11:16:21;14.03;;;13.93;;
20844;SDS011;10583;49.084;8.646;2022-11-14T11:18:50;13.03;;;13.03;;
20844;SDS011;10583;49.084;8.646;2022-11-14T11:21:17;12.57;;;12.53;;
20844;SDS011;10583;49.084;8.646;2022-11-14T11:23:50;13.60;;;13.50;;
20844;SDS011;10583;49.084;8.646;2022-11-14T11:26:19;13.17;;;13.07;;
20844;SDS011;10583;49.084;8.646;2022-11-14T11:29:01;13.03;;;12.93;;
20844;SDS011;10583;49.084;8.646;2022-11-14T11:31:43;12.13;;;12.13;;
20844;SDS011;10583;49.084;8.646;2022-11-14T11:34:16;7.30;;;7.30;;
20844;SDS011;10583;49.084;8.646;2022-11-14T11:36:49;4.17;;;4.17;;
20844;SDS011;10583;49.084;8.646;2022-11-14T11:39:21;2.30;;;2.30;;
20844;SDS011;10583;49.084;8.646;2022-11-14T11:41:51;2.10;;;2.10;;
20844;SDS011;10583;49.084;8.646;2022-11-14T11:44:20;2.20;;;2.20;;
20844;SDS011;10583;49.084;8.646;2022-11-14T11:46:54;2.57;;;2.57;;
20844;SDS011;10583;49.084;8.646;2022-11-14T11:49:30;2.00;;;2.00;;
20844;SDS011;10583;49.084;8.646;2022-11-14T11:52:04;2.00;;;2.00;;
20844;SDS011;10583;49.084;8.646;2022-11-14T11:54:43;2.07;;;2.07;;
20844;SDS011;10583;49.084;8.646;2022-11-14T11:57:16;1.93;;;1.93;;
20844;SDS011;10583;49.084;8.646;2022-11-14T11:59:44;1.90;;;1.90;;
20844;SDS011;10583;49.084;8.646;2022-11-14T12:02:18;1.83;;;1.83;;
20844;SDS011;10583;49.084;8.646;2022-11-14T12:04:50;1.80;;;1.80;;
20844;SDS011;10583;49.084;8.646;2022-11-14T12:07:18;2.00;;;2.00;;
20844;SDS011;10583;49.084;8.646;2022-11-14T12:09:46;1.97;;;1.97;;
20844;SDS011;10583;49.084;8.646;2022-11-14T12:12:17;2.00;;;2.00;;
20844;SDS011;10583;49.084;8.646;2022-11-14T12:15:02;1.90;;;1.90;;
20844;SDS011;10583;49.084;8.646;2022-11-14T12:17:48;1.50;;;1.50;;
20844;SDS011;10583;49.084;8.646;2022-11-14T12:23:25;1.77;;;1.77;;
20844;SDS011;10583;49.084;8.646;2022-11-14T12:26:19;1.70;;;1.70;;
20844;SDS011;10583;49.084;8.646;2022-11-14T12:29:10;1.43;;;1.43;;
20844;SDS011;10583;49.084;8.646;2022-11-14T12:31:49;1.90;;;1.90;;
20844;SDS011;10583;49.084;8.646;2022-11-14T12:34:23;1.20;;;1.20;;
20844;SDS011;10583;49.084;8.646;2022-11-14T12:36:53;1.70;;;1.70;;
20844;SDS011;10583;49.084;8.646;2022-11-14T12:39:21;1.77;;;1.77;;
20844;SDS011;10583;49.084;8.646;2022-11-14T12:41:50;1.53;;;1.53;;
20844;SDS011;10583;49.084;8.646;2022-11-14T12:44:30;1.47;;;1.47;;
20844;SDS011;10583;49.084;8.646;2022-11-14T12:47:12;1.40;;;1.40;;
20844;SDS011;10583;49.084;8.646;2022-11-14T12:49:58;1.60;;;1.60;;
20844;SDS011;10583;49.084;8.646;2022-11-14T12:52:43;1.67;;;1.67;;
20844;SDS011;10583;49.084;8.646;2022-11-14T12:58:14;1.23;;;1.23;;
20844;SDS011;10583;49.084;8.646;2022-11-14T13:00:57;1.43;;;1.43;;
20844;SDS011;10583;49.084;8.646;2022-11-14T13:03:39;1.60;;;1.60;;
20844;SDS011;10583;49.084;8.646;2022-11-14T13:06:18;1.40;;;1.40;;
20844;SDS011;10583;49.084;8.646;2022-11-14T13:09:11;1.60;;;1.60;;
20844;SDS011;10583;49.084;8.646;2022-11-14T13:11:58;1.40;;;1.40;;
20844;SDS011;10583;49.084;8.646;2022-11-14T13:15:21;1.67;;;1.67;;
20844;SDS011;10583;49.084;8.646;2022-11-14T13:18:11;1.50;;;1.50;;
20844;SDS011;10583;49.084;8.646;2022-11-14T13:21:04;1.50;;;1.50;;
20844;SDS011;10583;49.084;8.646;2022-11-14T13:23:58;1.60;;;1.60;;
20844;SDS011;10583;49.084;8.646;2022-11-14T13:26:37;1.50;;;1.50;;
20844;SDS011;10583;49.084;8.646;2022-11-14T13:29:05;1.40;;;1.40;;
20844;SDS011;10583;49.084;8.646;2022-11-14T13:31:41;1.30;;;1.30;;
20844;SDS011;10583;49.084;8.646;2022-11-14T13:37:12;1.40;;;1.40;;
20844;SDS011;10583;49.084;8.646;2022-11-14T13:39:52;1.33;;;1.33;;
20844;SDS011;10583;49.084;8.646;2022-11-14T13:42:39;1.60;;;1.60;;
20844;SDS011;10583;49.084;8.646;2022-11-14T13:48:17;10.00;;;10.00;;
20844;SDS011;10583;49.084;8.646;2022-11-14T13:50:56;11.97;;;11.93;;
20844;SDS011;10583;49.084;8.646;2022-11-14T13:53:27;10.37;;;10.37;;
20844;SDS011;10583;49.084;8.646;2022-11-14T13:55:58;9.10;;;9.10;;
20844;SDS011;10583;49.084;8.646;2022-11-14T13:58:36;9.03;;;9.03;;
20844;SDS011;10583;49.084;8.646;2022-11-14T14:01:14;9.43;;;9.43;;
20844;SDS011;10583;49.084;8.646;2022-11-14T14:06:44;9.07;;;9.07;;
20844;SDS011;10583;49.084;8.646;2022-11-14T14:09:21;11.10;;;11.10;;
20844;SDS011;10583;49.084;8.646;2022-11-14T14:11:59;13.20;;;13.10;;
20844;SDS011;10583;49.084;8.646;2022-11-14T14:14:51;10.73;;;10.73;;
20844;SDS011;10583;49.084;8.646;2022-11-14T14:17:30;9.50;;;9.50;;
20844;SDS011;10583;49.084;8.646;2022-11-14T14:20:05;9.87;;;9.87;;
20844;SDS011;10583;49.084;8.646;2022-11-14T14:22:45;9.73;;;9.73;;
20844;SDS011;10583;49.084;8.646;2022-11-14T14:25:22;9.60;;;9.60;;
20844;SDS011;10583;49.084;8.646;2022-11-14T14:27:58;10.70;;;10.70;;
20844;SDS011;10583;49.084;8.646;2022-11-14T14:30:33;10.63;;;10.63;;
20844;SDS011;10583;49.084;8.646;2022-11-14T14:33:08;9.23;;;9.23;;
20844;SDS011;10583;49.084;8.646;2022-11-14T14:35:37;10.47;;;10.47;;
20844;SDS011;10583;49.084;8.646;2022-11-14T14:38:20;9.23;;;9.23;;
20844;SDS011;10583;49.084;8.646;2022-11-14T14:40:49;9.97;;;9.97;;
20844;SDS011;10583;49.084;8.646;2022-11-14T14:43:23;9.10;;;9.10;;
20844;SDS011;10583;49.084;8.646;2022-11-14T14:45:53;12.10;;;12.10;;
20844;SDS011;10583;49.084;8.646;2022-11-14T14:48:21;12.03;;;12.00;;
20844;SDS011;10583;49.084;8.646;2022-11-14T14:50:51;10.33;;;10.33;;
20844;SDS011;10583;49.084;8.646;2022-11-14T14:53:20;10.27;;;10.27;;
20844;SDS011;10583;49.084;8.646;2022-11-14T14:55:53;11.60;;;11.60;;
20844;SDS011;10583;49.084;8.646;2022-11-14T14:58:22;10.53;;;10.53;;
20844;SDS011;10583;49.084;8.646;2022-11-14T15:00:52;7.40;;;7.40;;
20844;SDS011;10583;49.084;8.646;2022-11-14T15:03:22;7.07;;;7.07;;